sensor_id;sensor_type;location;lat;lon;timestamp;P1;durP1;ratioP1;P2;durP2;ratioP2
9904;SDS011;4991;43.566;27.820;2022-10-31T00:01:09;17.90;;;11.57;;
9904;SDS011;4991;43.566;27.820;2022-10-31T00:03:40;17.93;;;12.13;;
9904;SDS011;4991;43.566;27.820;2022-10-31T00:06:05;16.03;;;10.57;;
9904;SDS011;4991;43.566;27.820;2022-10-31T00:08:31;16.23;;;11.40;;
9904;SDS011;4991;43.566;27.820;2022-10-31T00:10:57;20.30;;;11.73;;
9904;SDS011;4991;43.566;27.820;2022-10-31T00:13:22;19.60;;;11.70;;
9904;SDS011;4991;43.566;27.820;2022-10-31T00:15:48;14.47;;;11.37;;
9904;SDS011;4991;43.566;27.820;2022-10-31T00:18:14;18.13;;;11.47;;
9904;SDS011;4991;43.566;27.820;2022-10-31T00:20:39;17.90;;;11.03;;
9904;SDS011;4991;43.566;27.820;2022-10-31T00:23:05;17.27;;;11.40;;
9904;SDS011;4991;43.566;27.820;2022-10-31T00:25:35;17.23;;;11.13;;
9904;SDS011;4991;43.566;27.820;2022-10-31T00:28:03;15.90;;;11.07;;
9904;SDS011;4991;43.566;27.820;2022-10-31T00:30:29;15.80;;;11.33;;
9904;SDS011;4991;43.566;27.820;2022-10-31T00:32:55;20.03;;;11.53;;
9904;SDS011;4991;43.566;27.820;2022-10-31T00:35:21;15.23;;;11.23;;
9904;SDS011;4991;43.566;27.820;2022-10-31T00:37:46;15.63;;;10.53;;
9904;SDS011;4991;43.566;27.820;2022-10-31T00:40:12;20.70;;;11.03;;
9904;SDS011;4991;43.566;27.820;2022-10-31T00:42:39;16.40;;;10.83;;
9904;SDS011;4991;43.566;27.820;2022-10-31T00:45:10;16.30;;;11.03;;
9904;SDS011;4991;43.566;27.820;2022-10-31T00:47:35;18.80;;;10.33;;
9904;SDS011;4991;43.566;27.820;2022-10-31T00:50:02;29.47;;;12.33;;
9904;SDS011;4991;43.566;27.820;2022-10-31T00:52:29;16.23;;;11.00;;
9904;SDS011;4991;43.566;27.820;2022-10-31T00:54:55;18.27;;;10.57;;
9904;SDS011;4991;43.566;27.820;2022-10-31T00:57:20;15.63;;;9.17;;
9904;SDS011;4991;43.566;27.820;2022-10-31T00:59:46;17.73;;;11.90;;
9904;SDS011;4991;43.566;27.820;2022-10-31T01:02:12;22.73;;;12.07;;
9904;SDS011;4991;43.566;27.820;2022-10-31T01:04:37;19.40;;;11.10;;
9904;SDS011;4991;43.566;27.820;2022-10-31T01:07:03;14.90;;;9.10;;
9904;SDS011;4991;43.566;27.820;2022-10-31T01:09:28;14.10;;;10.30;;
9904;SDS011;4991;43.566;27.820;2022-10-31T01:11:54;16.37;;;10.80;;
9904;SDS011;4991;43.566;27.820;2022-10-31T01:14:20;17.87;;;10.80;;
9904;SDS011;4991;43.566;27.820;2022-10-31T01:16:45;16.00;;;10.87;;
9904;SDS011;4991;43.566;27.820;2022-10-31T01:19:11;17.47;;;11.43;;
9904;SDS011;4991;43.566;27.820;2022-10-31T01:21:36;18.23;;;10.83;;
9904;SDS011;4991;43.566;27.820;2022-10-31T01:24:02;18.67;;;11.27;;
9904;SDS011;4991;43.566;27.820;2022-10-31T01:26:29;21.63;;;12.07;;
9904;SDS011;4991;43.566;27.820;2022-10-31T01:29:00;22.50;;;11.73;;
9904;SDS011;4991;43.566;27.820;2022-10-31T01:31:29;20.57;;;11.03;;
9904;SDS011;4991;43.566;27.820;2022-10-31T01:33:56;28.50;;;12.47;;
9904;SDS011;4991;43.566;27.820;2022-10-31T01:36:26;30.97;;;12.47;;
9904;SDS011;4991;43.566;27.820;2022-10-31T01:38:55;34.70;;;13.63;;
9904;SDS011;4991;43.566;27.820;2022-10-31T01:41:23;19.03;;;11.47;;
9904;SDS011;4991;43.566;27.820;2022-10-31T01:43:52;16.37;;;10.33;;
9904;SDS011;4991;43.566;27.820;2022-10-31T01:46:31;21.33;;;11.27;;
9904;SDS011;4991;43.566;27.820;2022-10-31T01:49:00;17.13;;;10.50;;
9904;SDS011;4991;43.566;27.820;2022-10-31T01:51:32;16.23;;;9.87;;
9904;SDS011;4991;43.566;27.820;2022-10-31T01:54:01;18.03;;;10.80;;
9904;SDS011;4991;43.566;27.820;2022-10-31T01:56:31;15.57;;;10.70;;
9904;SDS011;4991;43.566;27.820;2022-10-31T01:59:00;17.60;;;11.03;;
9904;SDS011;4991;43.566;27.820;2022-10-31T02:01:30;19.73;;;13.17;;
9904;SDS011;4991;43.566;27.820;2022-10-31T02:03:56;20.33;;;14.67;;
9904;SDS011;4991;43.566;27.820;2022-10-31T02:06:26;22.70;;;13.67;;
9904;SDS011;4991;43.566;27.820;2022-10-31T02:08:58;20.60;;;12.40;;
9904;SDS011;4991;43.566;27.820;2022-10-31T02:11:26;16.00;;;11.60;;
9904;SDS011;4991;43.566;27.820;2022-10-31T02:13:54;22.07;;;11.83;;
9904;SDS011;4991;43.566;27.820;2022-10-31T02:16:20;19.30;;;12.90;;
9904;SDS011;4991;43.566;27.820;2022-10-31T02:18:45;16.27;;;10.97;;
9904;SDS011;4991;43.566;27.820;2022-10-31T02:26:58;20.27;;;11.60;;
9904;SDS011;4991;43.566;27.820;2022-10-31T02:35:24;15.90;;;10.20;;
9904;SDS011;4991;43.566;27.820;2022-10-31T02:43:02;15.80;;;11.90;;
9904;SDS011;4991;43.566;27.820;2022-10-31T02:48:27;14.77;;;11.40;;
9904;SDS011;4991;43.566;27.820;2022-10-31T02:51:03;17.20;;;11.40;;
9904;SDS011;4991;43.566;27.820;2022-10-31T02:53:36;24.60;;;11.70;;
9904;SDS011;4991;43.566;27.820;2022-10-31T02:56:04;21.73;;;11.40;;
9904;SDS011;4991;43.566;27.820;2022-10-31T02:58:40;16.07;;;10.97;;
9904;SDS011;4991;43.566;27.820;2022-10-31T03:01:39;22.23;;;11.93;;
9904;SDS011;4991;43.566;27.820;2022-10-31T03:07:30;21.20;;;12.90;;
9904;SDS011;4991;43.566;27.820;2022-10-31T03:10:03;49.23;;;15.67;;
9904;SDS011;4991;43.566;27.820;2022-10-31T03:15:40;19.30;;;11.57;;
9904;SDS011;4991;43.566;27.820;2022-10-31T03:18:15;21.50;;;13.67;;
9904;SDS011;4991;43.566;27.820;2022-10-31T03:21:48;21.00;;;14.03;;
9904;SDS011;4991;43.566;27.820;2022-10-31T03:23:56;26.07;;;14.73;;
9904;SDS011;4991;43.566;27.820;2022-10-31T03:26:24;27.37;;;14.53;;
9904;SDS011;4991;43.566;27.820;2022-10-31T03:29:04;21.27;;;14.10;;
9904;SDS011;4991;43.566;27.820;2022-10-31T03:34:24;19.43;;;13.03;;
9904;SDS011;4991;43.566;27.820;2022-10-31T03:36:52;20.70;;;15.37;;
9904;SDS011;4991;43.566;27.820;2022-10-31T03:39:22;26.60;;;16.27;;
9904;SDS011;4991;43.566;27.820;2022-10-31T03:41:49;22.83;;;15.10;;
9904;SDS011;4991;43.566;27.820;2022-10-31T03:44:20;27.10;;;16.10;;
9904;SDS011;4991;43.566;27.820;2022-10-31T03:46:48;24.20;;;15.33;;
9904;SDS011;4991;43.566;27.820;2022-10-31T03:49:13;18.73;;;14.13;;
9904;SDS011;4991;43.566;27.820;2022-10-31T03:56:49;36.50;;;20.70;;
9904;SDS011;4991;43.566;27.820;2022-10-31T03:59:35;33.83;;;21.07;;
9904;SDS011;4991;43.566;27.820;2022-10-31T04:02:10;38.83;;;22.80;;
9904;SDS011;4991;43.566;27.820;2022-10-31T04:04:40;38.50;;;22.07;;
9904;SDS011;4991;43.566;27.820;2022-10-31T04:07:09;34.20;;;22.03;;
9904;SDS011;4991;43.566;27.820;2022-10-31T04:09:36;26.23;;;16.73;;
9904;SDS011;4991;43.566;27.820;2022-10-31T04:12:06;26.53;;;18.13;;
9904;SDS011;4991;43.566;27.820;2022-10-31T04:14:34;19.03;;;13.47;;
9904;SDS011;4991;43.566;27.820;2022-10-31T04:17:03;18.43;;;13.10;;
9904;SDS011;4991;43.566;27.820;2022-10-31T04:19:33;20.60;;;12.43;;
9904;SDS011;4991;43.566;27.820;2022-10-31T04:21:58;16.57;;;11.90;;
9904;SDS011;4991;43.566;27.820;2022-10-31T04:24:24;18.53;;;11.10;;
9904;SDS011;4991;43.566;27.820;2022-10-31T04:26:50;15.50;;;11.37;;
9904;SDS011;4991;43.566;27.820;2022-10-31T04:29:16;13.20;;;9.80;;
9904;SDS011;4991;43.566;27.820;2022-10-31T04:31:41;19.03;;;10.83;;
9904;SDS011;4991;43.566;27.820;2022-10-31T04:34:07;19.27;;;11.30;;
9904;SDS011;4991;43.566;27.820;2022-10-31T04:36:32;17.03;;;11.57;;
9904;SDS011;4991;43.566;27.820;2022-10-31T04:38:58;16.17;;;10.93;;
9904;SDS011;4991;43.566;27.820;2022-10-31T04:41:24;13.60;;;9.93;;
9904;SDS011;4991;43.566;27.820;2022-10-31T04:43:49;17.03;;;12.07;;
9904;SDS011;4991;43.566;27.820;2022-10-31T04:46:15;18.60;;;11.27;;
9904;SDS011;4991;43.566;27.820;2022-10-31T04:48:40;18.70;;;11.57;;
9904;SDS011;4991;43.566;27.820;2022-10-31T04:51:06;15.07;;;11.73;;
9904;SDS011;4991;43.566;27.820;2022-10-31T04:53:32;26.03;;;13.40;;
9904;SDS011;4991;43.566;27.820;2022-10-31T04:55:58;21.63;;;11.33;;
9904;SDS011;4991;43.566;27.820;2022-10-31T04:58:24;18.53;;;12.23;;
9904;SDS011;4991;43.566;27.820;2022-10-31T05:00:53;21.00;;;12.57;;
9904;SDS011;4991;43.566;27.820;2022-10-31T05:03:20;21.67;;;12.57;;
9904;SDS011;4991;43.566;27.820;2022-10-31T05:05:46;22.67;;;12.83;;
9904;SDS011;4991;43.566;27.820;2022-10-31T05:08:11;20.53;;;13.23;;
9904;SDS011;4991;43.566;27.820;2022-10-31T05:10:37;23.37;;;15.00;;
9904;SDS011;4991;43.566;27.820;2022-10-31T05:13:03;22.57;;;14.17;;
9904;SDS011;4991;43.566;27.820;2022-10-31T05:15:29;21.77;;;13.70;;
9904;SDS011;4991;43.566;27.820;2022-10-31T05:17:56;29.37;;;14.97;;
9904;SDS011;4991;43.566;27.820;2022-10-31T05:20:24;27.73;;;16.57;;
9904;SDS011;4991;43.566;27.820;2022-10-31T05:22:52;37.57;;;15.93;;
9904;SDS011;4991;43.566;27.820;2022-10-31T05:25:20;31.60;;;14.63;;
9904;SDS011;4991;43.566;27.820;2022-10-31T05:27:48;41.30;;;16.87;;
9904;SDS011;4991;43.566;27.820;2022-10-31T05:30:16;31.97;;;15.83;;
9904;SDS011;4991;43.566;27.820;2022-10-31T05:32:44;26.40;;;15.33;;
9904;SDS011;4991;43.566;27.820;2022-10-31T05:35:12;25.87;;;14.70;;
9904;SDS011;4991;43.566;27.820;2022-10-31T05:37:39;44.40;;;15.80;;
9904;SDS011;4991;43.566;27.820;2022-10-31T05:40:06;30.13;;;15.97;;
9904;SDS011;4991;43.566;27.820;2022-10-31T05:42:34;38.80;;;17.33;;
9904;SDS011;4991;43.566;27.820;2022-10-31T05:45:00;51.57;;;22.30;;
9904;SDS011;4991;43.566;27.820;2022-10-31T05:47:26;40.67;;;20.60;;
9904;SDS011;4991;43.566;27.820;2022-10-31T05:49:51;51.23;;;23.27;;
9904;SDS011;4991;43.566;27.820;2022-10-31T05:52:17;58.53;;;31.37;;
9904;SDS011;4991;43.566;27.820;2022-10-31T05:54:43;55.80;;;37.30;;
9904;SDS011;4991;43.566;27.820;2022-10-31T05:57:09;46.37;;;35.80;;
9904;SDS011;4991;43.566;27.820;2022-10-31T05:59:35;31.77;;;19.83;;
9904;SDS011;4991;43.566;27.820;2022-10-31T06:02:00;38.70;;;23.43;;
9904;SDS011;4991;43.566;27.820;2022-10-31T06:04:26;45.23;;;25.70;;
9904;SDS011;4991;43.566;27.820;2022-10-31T06:06:51;41.10;;;24.67;;
9904;SDS011;4991;43.566;27.820;2022-10-31T06:09:17;32.30;;;19.33;;
9904;SDS011;4991;43.566;27.820;2022-10-31T06:11:43;24.60;;;16.70;;
9904;SDS011;4991;43.566;27.820;2022-10-31T06:14:08;26.93;;;18.10;;
9904;SDS011;4991;43.566;27.820;2022-10-31T06:16:34;30.57;;;17.13;;
9904;SDS011;4991;43.566;27.820;2022-10-31T06:19:00;23.10;;;16.17;;
9904;SDS011;4991;43.566;27.820;2022-10-31T06:21:25;27.27;;;17.03;;
9904;SDS011;4991;43.566;27.820;2022-10-31T06:23:51;23.90;;;15.37;;
9904;SDS011;4991;43.566;27.820;2022-10-31T06:26:16;24.03;;;14.23;;
9904;SDS011;4991;43.566;27.820;2022-10-31T06:28:42;22.50;;;16.20;;
9904;SDS011;4991;43.566;27.820;2022-10-31T06:31:07;23.00;;;15.57;;
9904;SDS011;4991;43.566;27.820;2022-10-31T06:33:33;26.30;;;14.83;;
9904;SDS011;4991;43.566;27.820;2022-10-31T06:35:59;23.20;;;15.07;;
9904;SDS011;4991;43.566;27.820;2022-10-31T06:38:26;25.10;;;14.10;;
9904;SDS011;4991;43.566;27.820;2022-10-31T06:40:52;20.43;;;13.53;;
9904;SDS011;4991;43.566;27.820;2022-10-31T06:43:18;29.87;;;14.63;;
9904;SDS011;4991;43.566;27.820;2022-10-31T06:45:44;22.27;;;13.33;;
9904;SDS011;4991;43.566;27.820;2022-10-31T06:48:10;20.13;;;14.07;;
9904;SDS011;4991;43.566;27.820;2022-10-31T06:50:36;26.00;;;14.47;;
9904;SDS011;4991;43.566;27.820;2022-10-31T06:53:01;22.50;;;14.30;;
9904;SDS011;4991;43.566;27.820;2022-10-31T06:55:27;21.60;;;14.43;;
9904;SDS011;4991;43.566;27.820;2022-10-31T06:57:53;21.43;;;14.57;;
9904;SDS011;4991;43.566;27.820;2022-10-31T07:00:20;23.83;;;14.80;;
9904;SDS011;4991;43.566;27.820;2022-10-31T07:02:59;24.67;;;15.43;;
9904;SDS011;4991;43.566;27.820;2022-10-31T07:05:26;22.97;;;15.10;;
9904;SDS011;4991;43.566;27.820;2022-10-31T07:07:57;17.43;;;13.43;;
9904;SDS011;4991;43.566;27.820;2022-10-31T07:10:25;31.70;;;14.97;;
9904;SDS011;4991;43.566;27.820;2022-10-31T07:12:58;23.93;;;13.67;;
9904;SDS011;4991;43.566;27.820;2022-10-31T07:15:25;24.93;;;14.23;;
9904;SDS011;4991;43.566;27.820;2022-10-31T07:17:52;29.43;;;15.77;;
9904;SDS011;4991;43.566;27.820;2022-10-31T07:20:18;28.67;;;16.17;;
9904;SDS011;4991;43.566;27.820;2022-10-31T07:22:44;22.23;;;14.73;;
9904;SDS011;4991;43.566;27.820;2022-10-31T07:25:10;23.70;;;15.20;;
9904;SDS011;4991;43.566;27.820;2022-10-31T07:27:36;25.67;;;14.60;;
9904;SDS011;4991;43.566;27.820;2022-10-31T07:30:06;26.77;;;16.00;;
9904;SDS011;4991;43.566;27.820;2022-10-31T07:32:43;23.03;;;14.67;;
9904;SDS011;4991;43.566;27.820;2022-10-31T07:35:12;23.50;;;14.63;;
9904;SDS011;4991;43.566;27.820;2022-10-31T07:37:56;33.83;;;14.80;;
9904;SDS011;4991;43.566;27.820;2022-10-31T07:40:23;23.03;;;14.67;;
9904;SDS011;4991;43.566;27.820;2022-10-31T07:42:50;25.30;;;14.83;;
9904;SDS011;4991;43.566;27.820;2022-10-31T07:45:18;23.13;;;13.97;;
9904;SDS011;4991;43.566;27.820;2022-10-31T07:47:45;23.30;;;12.87;;
9904;SDS011;4991;43.566;27.820;2022-10-31T07:50:13;24.70;;;13.70;;
9904;SDS011;4991;43.566;27.820;2022-10-31T07:52:40;17.30;;;11.90;;
9904;SDS011;4991;43.566;27.820;2022-10-31T07:55:06;19.27;;;9.97;;
9904;SDS011;4991;43.566;27.820;2022-10-31T07:57:33;13.67;;;9.97;;
9904;SDS011;4991;43.566;27.820;2022-10-31T07:59:58;16.03;;;9.87;;
9904;SDS011;4991;43.566;27.820;2022-10-31T08:02:24;8.80;;;5.20;;
9904;SDS011;4991;43.566;27.820;2022-10-31T08:04:50;7.27;;;5.40;;
9904;SDS011;4991;43.566;27.820;2022-10-31T08:07:16;6.97;;;5.07;;
9904;SDS011;4991;43.566;27.820;2022-10-31T08:09:42;9.00;;;5.00;;
9904;SDS011;4991;43.566;27.820;2022-10-31T08:12:08;9.33;;;5.03;;
9904;SDS011;4991;43.566;27.820;2022-10-31T08:14:33;10.47;;;5.77;;
9904;SDS011;4991;43.566;27.820;2022-10-31T08:16:59;9.83;;;5.77;;
9904;SDS011;4991;43.566;27.820;2022-10-31T08:19:25;7.17;;;5.43;;
9904;SDS011;4991;43.566;27.820;2022-10-31T08:21:50;15.27;;;6.17;;
9904;SDS011;4991;43.566;27.820;2022-10-31T08:24:17;9.03;;;5.43;;
9904;SDS011;4991;43.566;27.820;2022-10-31T08:26:43;11.50;;;6.77;;
9904;SDS011;4991;43.566;27.820;2022-10-31T08:29:09;18.13;;;7.57;;
9904;SDS011;4991;43.566;27.820;2022-10-31T08:31:35;8.47;;;6.53;;
9904;SDS011;4991;43.566;27.820;2022-10-31T08:34:00;16.13;;;6.90;;
9904;SDS011;4991;43.566;27.820;2022-10-31T08:36:27;9.57;;;6.13;;
9904;SDS011;4991;43.566;27.820;2022-10-31T08:38:53;10.43;;;5.80;;
9904;SDS011;4991;43.566;27.820;2022-10-31T08:41:19;11.57;;;6.90;;
9904;SDS011;4991;43.566;27.820;2022-10-31T08:43:45;7.93;;;5.20;;
9904;SDS011;4991;43.566;27.820;2022-10-31T08:46:11;13.33;;;6.20;;
9904;SDS011;4991;43.566;27.820;2022-10-31T08:48:36;7.30;;;4.93;;
9904;SDS011;4991;43.566;27.820;2022-10-31T08:51:02;12.13;;;6.23;;
9904;SDS011;4991;43.566;27.820;2022-10-31T08:53:28;7.33;;;5.20;;
9904;SDS011;4991;43.566;27.820;2022-10-31T08:55:55;6.90;;;5.27;;
9904;SDS011;4991;43.566;27.820;2022-10-31T08:58:21;10.07;;;6.10;;
9904;SDS011;4991;43.566;27.820;2022-10-31T09:00:49;10.87;;;5.47;;
9904;SDS011;4991;43.566;27.820;2022-10-31T09:03:28;16.67;;;9.73;;
9904;SDS011;4991;43.566;27.820;2022-10-31T09:05:59;11.40;;;5.57;;
9904;SDS011;4991;43.566;27.820;2022-10-31T09:08:28;7.90;;;5.50;;
9904;SDS011;4991;43.566;27.820;2022-10-31T09:10:58;7.57;;;5.65;;
9904;SDS011;4991;43.566;27.820;2022-10-31T09:13:24;6.60;;;4.85;;
9904;SDS011;4991;43.566;27.820;2022-10-31T09:15:50;9.90;;;4.95;;
9904;SDS011;4991;43.566;27.820;2022-10-31T09:18:17;9.77;;;4.63;;
9904;SDS011;4991;43.566;27.820;2022-10-31T09:20:45;10.57;;;4.68;;
9904;SDS011;4991;43.566;27.820;2022-10-31T09:23:14;5.53;;;4.70;;
9904;SDS011;4991;43.566;27.820;2022-10-31T09:25:45;7.75;;;5.93;;
9904;SDS011;4991;43.566;27.820;2022-10-31T09:28:12;8.73;;;5.35;;
9904;SDS011;4991;43.566;27.820;2022-10-31T09:30:39;10.32;;;4.93;;
9904;SDS011;4991;43.566;27.820;2022-10-31T09:33:06;7.70;;;5.18;;
9904;SDS011;4991;43.566;27.820;2022-10-31T09:35:35;6.80;;;4.18;;
9904;SDS011;4991;43.566;27.820;2022-10-31T09:38:01;8.65;;;4.13;;
9904;SDS011;4991;43.566;27.820;2022-10-31T09:40:37;9.40;;;4.28;;
9904;SDS011;4991;43.566;27.820;2022-10-31T09:45:41;7.88;;;4.57;;
9904;SDS011;4991;43.566;27.820;2022-10-31T09:50:54;6.38;;;4.63;;
9904;SDS011;4991;43.566;27.820;2022-10-31T09:56:13;7.85;;;4.30;;
9904;SDS011;4991;43.566;27.820;2022-10-31T09:58:45;6.53;;;4.15;;
9904;SDS011;4991;43.566;27.820;2022-10-31T10:01:30;6.55;;;3.80;;
9904;SDS011;4991;43.566;27.820;2022-10-31T10:04:28;5.90;;;3.67;;
9904;SDS011;4991;43.566;27.820;2022-10-31T10:06:55;5.40;;;4.30;;
9904;SDS011;4991;43.566;27.820;2022-10-31T10:09:22;6.55;;;4.15;;
9904;SDS011;4991;43.566;27.820;2022-10-31T10:17:46;6.13;;;3.58;;
9904;SDS011;4991;43.566;27.820;2022-10-31T10:20:36;8.18;;;4.20;;
9904;SDS011;4991;43.566;27.820;2022-10-31T10:26:18;12.88;;;4.28;;
9904;SDS011;4991;43.566;27.820;2022-10-31T10:28:49;4.63;;;3.47;;
9904;SDS011;4991;43.566;27.820;2022-10-31T10:31:21;4.30;;;3.25;;
9904;SDS011;4991;43.566;27.820;2022-10-31T10:36:45;3.35;;;2.90;;
9904;SDS011;4991;43.566;27.820;2022-10-31T10:39:20;6.15;;;3.13;;
9904;SDS011;4991;43.566;27.820;2022-10-31T10:41:50;6.63;;;3.05;;
9904;SDS011;4991;43.566;27.820;2022-10-31T10:44:39;4.68;;;3.33;;
9904;SDS011;4991;43.566;27.820;2022-10-31T10:47:28;5.28;;;3.10;;
9904;SDS011;4991;43.566;27.820;2022-10-31T10:55:40;4.50;;;3.20;;
9904;SDS011;4991;43.566;27.820;2022-10-31T10:58:14;6.47;;;3.42;;
9904;SDS011;4991;43.566;27.820;2022-10-31T11:00:41;10.48;;;3.47;;
9904;SDS011;4991;43.566;27.820;2022-10-31T11:03:08;5.85;;;3.47;;
9904;SDS011;4991;43.566;27.820;2022-10-31T11:05:39;9.15;;;3.65;;
9904;SDS011;4991;43.566;27.820;2022-10-31T11:08:10;5.22;;;3.45;;
9904;SDS011;4991;43.566;27.820;2022-10-31T11:10:36;2.88;;;2.42;;
9904;SDS011;4991;43.566;27.820;2022-10-31T11:15:51;3.40;;;3.08;;
9904;SDS011;4991;43.566;27.820;2022-10-31T11:18:25;3.75;;;2.80;;
9904;SDS011;4991;43.566;27.820;2022-10-31T11:20:53;6.10;;;3.28;;
9904;SDS011;4991;43.566;27.820;2022-10-31T11:23:20;3.60;;;2.97;;
9904;SDS011;4991;43.566;27.820;2022-10-31T11:25:52;4.00;;;3.10;;
9904;SDS011;4991;43.566;27.820;2022-10-31T11:28:20;4.28;;;3.08;;
9904;SDS011;4991;43.566;27.820;2022-10-31T11:30:51;4.32;;;3.10;;
9904;SDS011;4991;43.566;27.820;2022-10-31T11:33:21;4.10;;;3.58;;
9904;SDS011;4991;43.566;27.820;2022-10-31T11:35:56;4.40;;;3.20;;
9904;SDS011;4991;43.566;27.820;2022-10-31T11:38:24;5.07;;;2.80;;
9904;SDS011;4991;43.566;27.820;2022-10-31T11:41:14;6.88;;;3.55;;
9904;SDS011;4991;43.566;27.820;2022-10-31T11:43:59;3.50;;;2.75;;
9904;SDS011;4991;43.566;27.820;2022-10-31T11:46:32;3.70;;;3.30;;
9904;SDS011;4991;43.566;27.820;2022-10-31T11:49:02;4.50;;;2.72;;
9904;SDS011;4991;43.566;27.820;2022-10-31T11:51:33;4.25;;;3.28;;
9904;SDS011;4991;43.566;27.820;2022-10-31T11:54:01;8.65;;;3.90;;
9904;SDS011;4991;43.566;27.820;2022-10-31T11:56:41;3.80;;;3.38;;
9904;SDS011;4991;43.566;27.820;2022-10-31T12:01:57;7.03;;;3.75;;
9904;SDS011;4991;43.566;27.820;2022-10-31T12:04:38;6.07;;;3.03;;
9904;SDS011;4991;43.566;27.820;2022-10-31T12:07:08;3.53;;;3.13;;
9904;SDS011;4991;43.566;27.820;2022-10-31T12:09:34;6.10;;;3.38;;
9904;SDS011;4991;43.566;27.820;2022-10-31T12:14:59;5.93;;;3.83;;
9904;SDS011;4991;43.566;27.820;2022-10-31T12:35:51;4.47;;;2.80;;
9904;SDS011;4991;43.566;27.820;2022-10-31T12:41:19;3.83;;;2.88;;
9904;SDS011;4991;43.566;27.820;2022-10-31T12:43:50;4.20;;;3.10;;
9904;SDS011;4991;43.566;27.820;2022-10-31T13:00:04;7.15;;;3.47;;
9904;SDS011;4991;43.566;27.820;2022-10-31T13:03:05;5.68;;;3.28;;
9904;SDS011;4991;43.566;27.820;2022-10-31T13:05:58;3.85;;;2.72;;
9904;SDS011;4991;43.566;27.820;2022-10-31T13:08:41;4.68;;;3.17;;
9904;SDS011;4991;43.566;27.820;2022-10-31T13:14:02;9.25;;;3.47;;
9904;SDS011;4991;43.566;27.820;2022-10-31T13:16:34;5.00;;;3.15;;
9904;SDS011;4991;43.566;27.820;2022-10-31T13:24:20;5.20;;;2.60;;
9904;SDS011;4991;43.566;27.820;2022-10-31T13:26:53;3.33;;;2.70;;
9904;SDS011;4991;43.566;27.820;2022-10-31T13:29:22;3.75;;;2.72;;
9904;SDS011;4991;43.566;27.820;2022-10-31T13:31:52;5.85;;;3.45;;
9904;SDS011;4991;43.566;27.820;2022-10-31T13:34:38;5.30;;;3.00;;
9904;SDS011;4991;43.566;27.820;2022-10-31T13:43:00;5.72;;;3.92;;
9904;SDS011;4991;43.566;27.820;2022-10-31T13:45:28;4.75;;;4.03;;
9904;SDS011;4991;43.566;27.820;2022-10-31T13:48:00;4.60;;;3.25;;
9904;SDS011;4991;43.566;27.820;2022-10-31T13:50:42;7.82;;;3.92;;
9904;SDS011;4991;43.566;27.820;2022-10-31T13:53:20;6.22;;;3.63;;
9904;SDS011;4991;43.566;27.820;2022-10-31T13:55:48;8.80;;;4.13;;
9904;SDS011;4991;43.566;27.820;2022-10-31T13:58:35;6.50;;;3.28;;
9904;SDS011;4991;43.566;27.820;2022-10-31T14:03:39;4.85;;;3.63;;
9904;SDS011;4991;43.566;27.820;2022-10-31T14:06:08;10.52;;;4.70;;
9904;SDS011;4991;43.566;27.820;2022-10-31T14:08:36;5.47;;;3.88;;
9904;SDS011;4991;43.566;27.820;2022-10-31T14:11:06;4.63;;;3.60;;
9904;SDS011;4991;43.566;27.820;2022-10-31T14:13:38;8.13;;;4.50;;
9904;SDS011;4991;43.566;27.820;2022-10-31T14:19:00;6.80;;;4.27;;
9904;SDS011;4991;43.566;27.820;2022-10-31T14:21:31;8.77;;;4.47;;
9904;SDS011;4991;43.566;27.820;2022-10-31T14:24:12;8.07;;;4.43;;
9904;SDS011;4991;43.566;27.820;2022-10-31T14:29:25;5.83;;;4.10;;
9904;SDS011;4991;43.566;27.820;2022-10-31T14:31:58;7.30;;;4.70;;
9904;SDS011;4991;43.566;27.820;2022-10-31T14:34:42;4.10;;;3.70;;
9904;SDS011;4991;43.566;27.820;2022-10-31T14:43:07;6.90;;;4.50;;
9904;SDS011;4991;43.566;27.820;2022-10-31T14:46:00;6.10;;;3.93;;
9904;SDS011;4991;43.566;27.820;2022-10-31T14:51:46;8.83;;;4.93;;
9904;SDS011;4991;43.566;27.820;2022-10-31T14:54:14;4.40;;;4.00;;
9904;SDS011;4991;43.566;27.820;2022-10-31T14:56:50;7.20;;;4.30;;
9904;SDS011;4991;43.566;27.820;2022-10-31T14:59:21;8.80;;;4.70;;
9904;SDS011;4991;43.566;27.820;2022-10-31T15:01:59;8.53;;;4.73;;
9904;SDS011;4991;43.566;27.820;2022-10-31T15:04:40;7.57;;;4.90;;
9904;SDS011;4991;43.566;27.820;2022-10-31T15:07:16;9.90;;;4.90;;
9904;SDS011;4991;43.566;27.820;2022-10-31T15:09:45;12.53;;;6.10;;
9904;SDS011;4991;43.566;27.820;2022-10-31T15:12:31;19.70;;;7.67;;
9904;SDS011;4991;43.566;27.820;2022-10-31T15:15:20;18.80;;;7.83;;
9904;SDS011;4991;43.566;27.820;2022-10-31T15:17:45;21.53;;;8.27;;
9904;SDS011;4991;43.566;27.820;2022-10-31T15:20:22;21.33;;;9.73;;
9904;SDS011;4991;43.566;27.820;2022-10-31T15:22:51;21.77;;;8.67;;
9904;SDS011;4991;43.566;27.820;2022-10-31T15:25:19;26.10;;;8.97;;
9904;SDS011;4991;43.566;27.820;2022-10-31T15:27:47;22.13;;;10.60;;
9904;SDS011;4991;43.566;27.820;2022-10-31T15:30:21;24.57;;;10.73;;
9904;SDS011;4991;43.566;27.820;2022-10-31T15:32:48;20.70;;;10.47;;
9904;SDS011;4991;43.566;27.820;2022-10-31T15:35:23;24.63;;;10.53;;
9904;SDS011;4991;43.566;27.820;2022-10-31T15:37:54;23.93;;;10.83;;
9904;SDS011;4991;43.566;27.820;2022-10-31T15:40:21;21.23;;;10.70;;
9904;SDS011;4991;43.566;27.820;2022-10-31T15:43:02;32.13;;;11.00;;
9904;SDS011;4991;43.566;27.820;2022-10-31T15:45:29;24.03;;;10.87;;
9904;SDS011;4991;43.566;27.820;2022-10-31T15:47:57;20.53;;;10.00;;
9904;SDS011;4991;43.566;27.820;2022-10-31T15:50:32;20.60;;;9.47;;
9904;SDS011;4991;43.566;27.820;2022-10-31T15:53:06;21.23;;;9.70;;
9904;SDS011;4991;43.566;27.820;2022-10-31T15:55:45;21.70;;;10.57;;
9904;SDS011;4991;43.566;27.820;2022-10-31T15:58:14;22.73;;;10.33;;
9904;SDS011;4991;43.566;27.820;2022-10-31T16:00:42;28.27;;;12.50;;
9904;SDS011;4991;43.566;27.820;2022-10-31T16:06:00;29.70;;;14.77;;
9904;SDS011;4991;43.566;27.820;2022-10-31T16:10:56;29.83;;;12.77;;
9904;SDS011;4991;43.566;27.820;2022-10-31T16:13:32;25.83;;;12.80;;
9904;SDS011;4991;43.566;27.820;2022-10-31T16:16:00;28.57;;;11.77;;
9904;SDS011;4991;43.566;27.820;2022-10-31T16:18:29;21.60;;;12.17;;
9904;SDS011;4991;43.566;27.820;2022-10-31T16:21:00;22.20;;;11.20;;
9904;SDS011;4991;43.566;27.820;2022-10-31T16:23:26;23.67;;;10.63;;
9904;SDS011;4991;43.566;27.820;2022-10-31T16:25:52;22.33;;;10.30;;
9904;SDS011;4991;43.566;27.820;2022-10-31T16:28:20;23.37;;;9.90;;
9904;SDS011;4991;43.566;27.820;2022-10-31T16:30:50;19.20;;;9.47;;
9904;SDS011;4991;43.566;27.820;2022-10-31T16:33:20;26.67;;;9.93;;
9904;SDS011;4991;43.566;27.820;2022-10-31T16:35:58;22.80;;;10.47;;
9904;SDS011;4991;43.566;27.820;2022-10-31T16:38:28;23.87;;;9.97;;
9904;SDS011;4991;43.566;27.820;2022-10-31T16:40:53;31.13;;;12.83;;
9904;SDS011;4991;43.566;27.820;2022-10-31T16:43:19;18.83;;;11.10;;
9904;SDS011;4991;43.566;27.820;2022-10-31T16:45:47;12.70;;;8.13;;
9904;SDS011;4991;43.566;27.820;2022-10-31T16:48:16;9.03;;;7.07;;
9904;SDS011;4991;43.566;27.820;2022-10-31T16:50:44;21.83;;;10.37;;
9904;SDS011;4991;43.566;27.820;2022-10-31T16:53:11;20.47;;;13.27;;
9904;SDS011;4991;43.566;27.820;2022-10-31T16:55:46;23.97;;;15.97;;
9904;SDS011;4991;43.566;27.820;2022-10-31T16:58:24;21.50;;;15.83;;
9904;SDS011;4991;43.566;27.820;2022-10-31T17:00:53;20.40;;;12.80;;
9904;SDS011;4991;43.566;27.820;2022-10-31T17:03:19;19.17;;;12.40;;
9904;SDS011;4991;43.566;27.820;2022-10-31T17:05:45;19.10;;;12.30;;
9904;SDS011;4991;43.566;27.820;2022-10-31T17:08:11;17.30;;;11.20;;
9904;SDS011;4991;43.566;27.820;2022-10-31T17:10:37;22.17;;;13.47;;
9904;SDS011;4991;43.566;27.820;2022-10-31T17:13:03;17.70;;;11.57;;
9904;SDS011;4991;43.566;27.820;2022-10-31T17:15:40;24.27;;;12.10;;
9904;SDS011;4991;43.566;27.820;2022-10-31T17:18:10;19.93;;;12.00;;